sensor_id;sensor_type;location;lat;lon;timestamp;pressure;altitude;pressure_sealevel;temperature;humidity
7335;BME280;3708;42.632;23.378;2023-04-09T00:01:02;94495.19;;;10.68;62.40
7335;BME280;3708;42.632;23.378;2023-04-09T00:03:30;94486.66;;;10.89;62.11
7335;BME280;3708;42.632;23.378;2023-04-09T00:05:57;94488.06;;;10.86;61.83
7335;BME280;3708;42.632;23.378;2023-04-09T00:08:24;94493.47;;;10.81;61.77
7335;BME280;3708;42.632;23.378;2023-04-09T00:10:51;94486.81;;;10.92;61.60
7335;BME280;3708;42.632;23.378;2023-04-09T00:13:18;94485.00;;;10.84;60.43
7335;BME280;3708;42.632;23.378;2023-04-09T00:15:46;94489.06;;;10.56;61.62
7335;BME280;3708;42.632;23.378;2023-04-09T00:18:13;94495.47;;;10.84;61.28
7335;BME280;3708;42.632;23.378;2023-04-09T00:20:42;94498.75;;;10.64;61.47
7335;BME280;3708;42.632;23.378;2023-04-09T00:23:08;94499.06;;;10.71;61.41
7335;BME280;3708;42.632;23.378;2023-04-09T00:25:35;94497.19;;;10.80;61.24
7335;BME280;3708;42.632;23.378;2023-04-09T00:28:02;94502.16;;;10.64;61.18
7335;BME280;3708;42.632;23.378;2023-04-09T00:30:30;94490.91;;;10.64;61.08
7335;BME280;3708;42.632;23.378;2023-04-09T00:32:57;94498.63;;;10.60;61.03
7335;BME280;3708;42.632;23.378;2023-04-09T00:35:23;94499.97;;;10.66;60.66
7335;BME280;3708;42.632;23.378;2023-04-09T00:37:52;94499.03;;;10.80;60.53
7335;BME280;3708;42.632;23.378;2023-04-09T00:40:19;94495.00;;;10.82;60.29
7335;BME280;3708;42.632;23.378;2023-04-09T00:42:45;94497.78;;;10.77;60.36
7335;BME280;3708;42.632;23.378;2023-04-09T00:45:13;94498.88;;;10.85;60.02
7335;BME280;3708;42.632;23.378;2023-04-09T00:47:40;94492.97;;;10.88;60.11
7335;BME280;3708;42.632;23.378;2023-04-09T00:50:08;94487.13;;;10.91;59.65
7335;BME280;3708;42.632;23.378;2023-04-09T00:52:35;94496.25;;;10.85;59.89
7335;BME280;3708;42.632;23.378;2023-04-09T00:55:05;94494.19;;;10.99;59.78
7335;BME280;3708;42.632;23.378;2023-04-09T00:57:32;94492.97;;;10.88;59.78
7335;BME280;3708;42.632;23.378;2023-04-09T00:59:59;94498.34;;;10.91;59.82
7335;BME280;3708;42.632;23.378;2023-04-09T01:02:26;94491.47;;;10.87;59.46
7335;BME280;3708;42.632;23.378;2023-04-09T01:04:54;94492.19;;;10.87;58.95
7335;BME280;3708;42.632;23.378;2023-04-09T01:07:29;94504.72;;;10.82;59.63
7335;BME280;3708;42.632;23.378;2023-04-09T01:10:04;94501.66;;;10.80;59.35
7335;BME280;3708;42.632;23.378;2023-04-09T01:12:37;94510.75;;;10.82;59.43
7335;BME280;3708;42.632;23.378;2023-04-09T01:15:10;94501.78;;;10.83;59.49
7335;BME280;3708;42.632;23.378;2023-04-09T01:17:44;94503.13;;;10.89;59.31
7335;BME280;3708;42.632;23.378;2023-04-09T01:20:14;94500.72;;;10.76;59.50
7335;BME280;3708;42.632;23.378;2023-04-09T01:22:53;94498.44;;;10.65;59.75
7335;BME280;3708;42.632;23.378;2023-04-09T01:25:36;94498.25;;;10.79;59.54
7335;BME280;3708;42.632;23.378;2023-04-09T01:28:14;94503.22;;;10.63;59.87
7335;BME280;3708;42.632;23.378;2023-04-09T01:30:44;94500.13;;;10.61;59.51
7335;BME280;3708;42.632;23.378;2023-04-09T01:33:14;94502.16;;;10.64;59.62
7335;BME280;3708;42.632;23.378;2023-04-09T01:35:42;94505.06;;;10.71;59.40
7335;BME280;3708;42.632;23.378;2023-04-09T01:38:13;94506.72;;;10.76;59.49
7335;BME280;3708;42.632;23.378;2023-04-09T01:40:41;94502.59;;;10.75;59.30
7335;BME280;3708;42.632;23.378;2023-04-09T01:43:09;94503.34;;;10.84;59.23
7335;BME280;3708;42.632;23.378;2023-04-09T01:45:39;94506.53;;;10.90;59.05
7335;BME280;3708;42.632;23.378;2023-04-09T01:48:06;94504.44;;;10.74;59.12
7335;BME280;3708;42.632;23.378;2023-04-09T01:50:34;94504.00;;;10.64;59.04
7335;BME280;3708;42.632;23.378;2023-04-09T01:53:01;94503.59;;;10.19;60.42
7335;BME280;3708;42.632;23.378;2023-04-09T01:55:28;94507.59;;;10.34;60.16
7335;BME280;3708;42.632;23.378;2023-04-09T01:57:55;94505.25;;;10.49;59.68
7335;BME280;3708;42.632;23.378;2023-04-09T02:00:22;94496.53;;;10.28;59.98
7335;BME280;3708;42.632;23.378;2023-04-09T02:02:54;94500.03;;;10.41;59.83
7335;BME280;3708;42.632;23.378;2023-04-09T02:05:24;94504.47;;;10.49;59.58
7335;BME280;3708;42.632;23.378;2023-04-09T02:07:55;94498.44;;;10.57;59.27
7335;BME280;3708;42.632;23.378;2023-04-09T02:10:25;94510.31;;;10.63;59.06
7335;BME280;3708;42.632;23.378;2023-04-09T02:12:53;94506.00;;;10.67;58.69
7335;BME280;3708;42.632;23.378;2023-04-09T02:15:21;94515.84;;;10.61;58.86
7335;BME280;3708;42.632;23.378;2023-04-09T02:17:49;94508.94;;;10.57;58.54
7335;BME280;3708;42.632;23.378;2023-04-09T02:20:17;94505.84;;;10.55;58.86
7335;BME280;3708;42.632;23.378;2023-04-09T02:22:46;94507.88;;;10.58;58.66
7335;BME280;3708;42.632;23.378;2023-04-09T02:25:14;94505.69;;;10.68;58.58
7335;BME280;3708;42.632;23.378;2023-04-09T02:27:41;94502.28;;;10.68;58.52
7335;BME280;3708;42.632;23.378;2023-04-09T02:30:08;94503.19;;;10.72;58.21
7335;BME280;3708;42.632;23.378;2023-04-09T02:32:35;94505.81;;;10.72;58.19
7335;BME280;3708;42.632;23.378;2023-04-09T02:35:02;94501.88;;;10.49;58.49
7335;BME280;3708;42.632;23.378;2023-04-09T02:37:30;94493.69;;;10.50;58.85
7335;BME280;3708;42.632;23.378;2023-04-09T02:39:57;94498.22;;;10.24;59.40
7335;BME280;3708;42.632;23.378;2023-04-09T02:42:24;94486.03;;;10.37;59.04
7335;BME280;3708;42.632;23.378;2023-04-09T02:44:50;94497.56;;;10.36;59.04
7335;BME280;3708;42.632;23.378;2023-04-09T02:47:17;94504.97;;;10.34;59.18
7335;BME280;3708;42.632;23.378;2023-04-09T02:49:44;94492.78;;;10.38;59.17
7335;BME280;3708;42.632;23.378;2023-04-09T02:52:11;94491.72;;;10.39;58.93
7335;BME280;3708;42.632;23.378;2023-04-09T02:54:39;94490.66;;;10.23;59.37
7335;BME280;3708;42.632;23.378;2023-04-09T02:57:06;94485.56;;;10.35;58.47
7335;BME280;3708;42.632;23.378;2023-04-09T02:59:32;94485.25;;;10.45;58.07
7335;BME280;3708;42.632;23.378;2023-04-09T03:02:00;94488.78;;;10.49;57.65
7335;BME280;3708;42.632;23.378;2023-04-09T03:04:26;94491.69;;;10.56;57.17
7335;BME280;3708;42.632;23.378;2023-04-09T03:06:53;94495.84;;;10.57;57.19
7335;BME280;3708;42.632;23.378;2023-04-09T03:09:20;94490.78;;;10.52;57.00
7335;BME280;3708;42.632;23.378;2023-04-09T03:11:48;94490.81;;;10.35;56.85
7335;BME280;3708;42.632;23.378;2023-04-09T03:14:15;94494.19;;;10.35;56.81
7335;BME280;3708;42.632;23.378;2023-04-09T03:16:42;94488.66;;;10.20;57.05
7335;BME280;3708;42.632;23.378;2023-04-09T03:19:08;94493.72;;;10.25;57.18
7335;BME280;3708;42.632;23.378;2023-04-09T03:21:35;94487.41;;;10.09;57.50
7335;BME280;3708;42.632;23.378;2023-04-09T03:24:02;94487.88;;;10.02;57.90
7335;BME280;3708;42.632;23.378;2023-04-09T03:26:29;94492.81;;;10.21;57.56
7335;BME280;3708;42.632;23.378;2023-04-09T03:29:02;94491.75;;;10.22;57.82
7335;BME280;3708;42.632;23.378;2023-04-09T03:31:29;94492.81;;;10.12;57.99
7335;BME280;3708;42.632;23.378;2023-04-09T03:33:56;94492.19;;;10.07;58.30
7335;BME280;3708;42.632;23.378;2023-04-09T03:36:23;94495.13;;;10.14;58.44
7335;BME280;3708;42.632;23.378;2023-04-09T03:38:52;94497.25;;;10.29;57.92
7335;BME280;3708;42.632;23.378;2023-04-09T03:41:19;94496.66;;;10.32;57.96
7335;BME280;3708;42.632;23.378;2023-04-09T03:43:46;94497.25;;;10.46;57.77
7335;BME280;3708;42.632;23.378;2023-04-09T03:46:15;94501.09;;;10.40;57.95
7335;BME280;3708;42.632;23.378;2023-04-09T03:48:42;94500.94;;;10.45;57.75
7335;BME280;3708;42.632;23.378;2023-04-09T03:51:10;94492.19;;;10.32;57.69
7335;BME280;3708;42.632;23.378;2023-04-09T03:53:37;94506.22;;;10.28;57.71
7335;BME280;3708;42.632;23.378;2023-04-09T03:56:04;94505.13;;;10.29;58.01
7335;BME280;3708;42.632;23.378;2023-04-09T03:58:31;94511.13;;;10.21;58.25
7335;BME280;3708;42.632;23.378;2023-04-09T04:00:58;94501.59;;;10.25;58.09
7335;BME280;3708;42.632;23.378;2023-04-09T04:03:27;94502.69;;;10.24;58.24
7335;BME280;3708;42.632;23.378;2023-04-09T04:05:59;94506.53;;;10.35;58.49
7335;BME280;3708;42.632;23.378;2023-04-09T04:08:26;94509.75;;;10.23;58.62
7335;BME280;3708;42.632;23.378;2023-04-09T04:10:53;94518.84;;;10.17;59.10
7335;BME280;3708;42.632;23.378;2023-04-09T04:13:20;94513.28;;;10.19;58.91
7335;BME280;3708;42.632;23.378;2023-04-09T04:15:47;94510.81;;;10.14;59.07
7335;BME280;3708;42.632;23.378;2023-04-09T04:18:13;94510.97;;;10.34;58.81
7335;BME280;3708;42.632;23.378;2023-04-09T04:20:41;94516.22;;;10.43;58.57
7335;BME280;3708;42.632;23.378;2023-04-09T04:23:08;94512.94;;;10.46;58.33
7335;BME280;3708;42.632;23.378;2023-04-09T04:25:35;94513.28;;;10.27;58.35
7335;BME280;3708;42.632;23.378;2023-04-09T04:28:02;94513.13;;;10.49;58.36
7335;BME280;3708;42.632;23.378;2023-04-09T04:30:28;94508.97;;;10.40;58.28
7335;BME280;3708;42.632;23.378;2023-04-09T04:32:55;94515.44;;;10.34;58.55
7335;BME280;3708;42.632;23.378;2023-04-09T04:35:22;94518.19;;;10.46;58.55
7335;BME280;3708;42.632;23.378;2023-04-09T04:37:50;94514.03;;;10.45;58.62
7335;BME280;3708;42.632;23.378;2023-04-09T04:40:17;94510.94;;;10.60;58.59
7335;BME280;3708;42.632;23.378;2023-04-09T04:42:43;94520.50;;;10.64;58.38
7335;BME280;3708;42.632;23.378;2023-04-09T04:45:10;94512.94;;;10.71;58.04
7335;BME280;3708;42.632;23.378;2023-04-09T04:47:37;94518.13;;;10.89;57.97
7335;BME280;3708;42.632;23.378;2023-04-09T04:50:05;94526.91;;;10.84;57.99
7335;BME280;3708;42.632;23.378;2023-04-09T04:52:32;94522.75;;;10.83;58.11
7335;BME280;3708;42.632;23.378;2023-04-09T04:55:00;94524.28;;;10.84;57.99
7335;BME280;3708;42.632;23.378;2023-04-09T04:57:27;94523.53;;;10.84;58.22
7335;BME280;3708;42.632;23.378;2023-04-09T04:59:54;94528.66;;;10.71;58.28
7335;BME280;3708;42.632;23.378;2023-04-09T05:02:21;94524.28;;;10.93;58.30
7335;BME280;3708;42.632;23.378;2023-04-09T05:04:47;94526.53;;;11.03;57.98
7335;BME280;3708;42.632;23.378;2023-04-09T05:07:16;94525.13;;;11.14;57.80
7335;BME280;3708;42.632;23.378;2023-04-09T05:09:43;94532.03;;;11.18;57.48
7335;BME280;3708;42.632;23.378;2023-04-09T05:12:11;94530.56;;;11.38;57.16
7335;BME280;3708;42.632;23.378;2023-04-09T05:14:39;94529.41;;;11.18;57.30
7335;BME280;3708;42.632;23.378;2023-04-09T05:17:06;94527.16;;;11.08;57.59
7335;BME280;3708;42.632;23.378;2023-04-09T05:19:33;94541.91;;;11.13;57.31
7335;BME280;3708;42.632;23.378;2023-04-09T05:21:59;94537.41;;;11.22;56.89
7335;BME280;3708;42.632;23.378;2023-04-09T05:24:26;94534.31;;;11.28;56.83
7335;BME280;3708;42.632;23.378;2023-04-09T05:26:53;94536.25;;;11.40;57.21
7335;BME280;3708;42.632;23.378;2023-04-09T05:29:21;94532.78;;;11.57;56.84
7335;BME280;3708;42.632;23.378;2023-04-09T05:31:48;94537.75;;;11.49;57.00
7335;BME280;3708;42.632;23.378;2023-04-09T05:34:15;94536.66;;;11.50;57.29
7335;BME280;3708;42.632;23.378;2023-04-09T05:36:42;94529.53;;;11.60;57.35
7335;BME280;3708;42.632;23.378;2023-04-09T05:39:08;94530.44;;;11.26;58.02
7335;BME280;3708;42.632;23.378;2023-04-09T05:41:35;94534.91;;;11.63;57.49
7335;BME280;3708;42.632;23.378;2023-04-09T05:44:03;94537.75;;;11.49;57.49
7335;BME280;3708;42.632;23.378;2023-04-09T05:46:31;94528.81;;;11.80;56.71
7335;BME280;3708;42.632;23.378;2023-04-09T05:48:58;94535.44;;;11.86;56.09
7335;BME280;3708;42.632;23.378;2023-04-09T05:51:25;94538.69;;;11.83;56.08
7335;BME280;3708;42.632;23.378;2023-04-09T05:53:51;94534.72;;;11.97;55.70
7335;BME280;3708;42.632;23.378;2023-04-09T05:56:18;94530.88;;;11.95;55.06
7335;BME280;3708;42.632;23.378;2023-04-09T05:58:47;94524.88;;;11.94;54.75
7335;BME280;3708;42.632;23.378;2023-04-09T06:01:13;94537.72;;;11.87;54.64
7335;BME280;3708;42.632;23.378;2023-04-09T06:03:42;94530.34;;;12.01;53.80
7335;BME280;3708;42.632;23.378;2023-04-09T06:06:09;94536.53;;;12.05;53.39
7335;BME280;3708;42.632;23.378;2023-04-09T06:08:35;94539.47;;;12.24;53.64
7335;BME280;3708;42.632;23.378;2023-04-09T06:11:02;94535.03;;;12.37;53.08
7335;BME280;3708;42.632;23.378;2023-04-09T06:13:32;94535.53;;;12.10;52.91
7335;BME280;3708;42.632;23.378;2023-04-09T06:15:58;94543.34;;;12.18;52.88
7335;BME280;3708;42.632;23.378;2023-04-09T06:18:25;94537.84;;;12.32;52.77
7335;BME280;3708;42.632;23.378;2023-04-09T06:21:01;94543.22;;;12.56;52.09
7335;BME280;3708;42.632;23.378;2023-04-09T06:23:28;94542.34;;;12.64;51.95
7335;BME280;3708;42.632;23.378;2023-04-09T06:25:55;94541.88;;;12.50;51.19
7335;BME280;3708;42.632;23.378;2023-04-09T06:28:22;94542.56;;;12.59;50.94
7335;BME280;3708;42.632;23.378;2023-04-09T06:30:48;94539.41;;;12.33;51.69
7335;BME280;3708;42.632;23.378;2023-04-09T06:33:15;94545.69;;;12.73;50.82
7335;BME280;3708;42.632;23.378;2023-04-09T06:35:42;94549.09;;;12.86;50.94
7335;BME280;3708;42.632;23.378;2023-04-09T06:38:10;94547.88;;;12.83;50.37
7335;BME280;3708;42.632;23.378;2023-04-09T06:40:37;94543.44;;;12.96;50.30
7335;BME280;3708;42.632;23.378;2023-04-09T06:43:04;94545.84;;;12.89;50.47
7335;BME280;3708;42.632;23.378;2023-04-09T06:45:32;94553.47;;;12.82;50.17
7335;BME280;3708;42.632;23.378;2023-04-09T06:47:59;94551.50;;;12.79;50.65
7335;BME280;3708;42.632;23.378;2023-04-09T06:50:26;94546.56;;;12.77;50.27
7335;BME280;3708;42.632;23.378;2023-04-09T06:52:53;94550.50;;;12.71;50.50
7335;BME280;3708;42.632;23.378;2023-04-09T06:55:22;94558.56;;;12.99;49.89
7335;BME280;3708;42.632;23.378;2023-04-09T06:57:49;94556.56;;;12.96;50.42
7335;BME280;3708;42.632;23.378;2023-04-09T07:00:16;94554.91;;;12.79;49.64
7335;BME280;3708;42.632;23.378;2023-04-09T07:02:43;94555.81;;;12.95;49.16
7335;BME280;3708;42.632;23.378;2023-04-09T07:05:10;94563.34;;;12.85;49.99
7335;BME280;3708;42.632;23.378;2023-04-09T07:07:37;94552.88;;;12.64;50.02
7335;BME280;3708;42.632;23.378;2023-04-09T07:10:04;94561.91;;;12.87;49.85
7335;BME280;3708;42.632;23.378;2023-04-09T07:12:33;94559.47;;;12.70;50.40
7335;BME280;3708;42.632;23.378;2023-04-09T07:15:00;94563.50;;;13.00;49.31
7335;BME280;3708;42.632;23.378;2023-04-09T07:17:28;94564.97;;;13.22;48.93
7335;BME280;3708;42.632;23.378;2023-04-09T07:19:56;94558.00;;;13.38;48.55
7335;BME280;3708;42.632;23.378;2023-04-09T07:22:25;94562.28;;;13.43;48.31
7335;BME280;3708;42.632;23.378;2023-04-09T07:24:52;94559.66;;;13.67;47.78
7335;BME280;3708;42.632;23.378;2023-04-09T07:27:19;94567.75;;;13.98;46.91
7335;BME280;3708;42.632;23.378;2023-04-09T07:29:48;94563.50;;;13.82;46.51
7335;BME280;3708;42.632;23.378;2023-04-09T07:32:15;94571.28;;;13.90;46.33
7335;BME280;3708;42.632;23.378;2023-04-09T07:34:42;94570.50;;;13.90;46.75
7335;BME280;3708;42.632;23.378;2023-04-09T07:37:09;94571.28;;;13.90;46.69
7335;BME280;3708;42.632;23.378;2023-04-09T07:39:36;94566.06;;;14.18;46.13
7335;BME280;3708;42.632;23.378;2023-04-09T07:42:03;94565.53;;;14.00;46.39
7335;BME280;3708;42.632;23.378;2023-04-09T07:44:32;94576.31;;;13.83;46.92
7335;BME280;3708;42.632;23.378;2023-04-09T07:47:00;94571.28;;;13.90;46.90
7335;BME280;3708;42.632;23.378;2023-04-09T07:49:27;94567.13;;;13.65;46.47
7335;BME280;3708;42.632;23.378;2023-04-09T07:51:54;94579.06;;;13.99;46.22
7335;BME280;3708;42.632;23.378;2023-04-09T07:54:21;94569.13;;;14.20;45.71
7335;BME280;3708;42.632;23.378;2023-04-09T07:56:47;94581.56;;;14.07;45.64
7335;BME280;3708;42.632;23.378;2023-04-09T07:59:14;94580.59;;;13.88;47.17
7335;BME280;3708;42.632;23.378;2023-04-09T08:01:41;94575.00;;;13.89;46.88
7335;BME280;3708;42.632;23.378;2023-04-09T08:04:10;94584.28;;;14.11;45.92
7335;BME280;3708;42.632;23.378;2023-04-09T08:06:37;94596.81;;;13.65;46.59
7335;BME280;3708;42.632;23.378;2023-04-09T08:09:04;94601.25;;;13.73;46.48
7335;BME280;3708;42.632;23.378;2023-04-09T08:11:31;94597.59;;;13.90;46.01
7335;BME280;3708;42.632;23.378;2023-04-09T08:13:58;94597.16;;;13.88;46.07
7335;BME280;3708;42.632;23.378;2023-04-09T08:16:27;94608.78;;;13.87;46.07
7335;BME280;3708;42.632;23.378;2023-04-09T08:18:54;94594.97;;;13.90;46.14
7335;BME280;3708;42.632;23.378;2023-04-09T08:21:22;94596.72;;;13.86;46.04
7335;BME280;3708;42.632;23.378;2023-04-09T08:23:49;94599.69;;;13.85;46.56
7335;BME280;3708;42.632;23.378;2023-04-09T08:26:16;94610.09;;;13.93;46.42
7335;BME280;3708;42.632;23.378;2023-04-09T08:28:43;94604.63;;;13.74;46.57
7335;BME280;3708;42.632;23.378;2023-04-09T08:31:10;94609.44;;;13.72;46.93
7335;BME280;3708;42.632;23.378;2023-04-09T08:33:36;94602.81;;;13.30;47.90
7335;BME280;3708;42.632;23.378;2023-04-09T08:36:07;94599.66;;;13.48;47.48
7335;BME280;3708;42.632;23.378;2023-04-09T08:38:37;94602.75;;;13.62;47.92
7335;BME280;3708;42.632;23.378;2023-04-09T08:41:03;94595.09;;;13.82;47.65
7335;BME280;3708;42.632;23.378;2023-04-09T08:43:31;94604.19;;;13.84;47.61
7335;BME280;3708;42.632;23.378;2023-04-09T08:45:59;94602.53;;;13.67;47.80
7335;BME280;3708;42.632;23.378;2023-04-09T08:48:28;94595.19;;;13.85;47.40
7335;BME280;3708;42.632;23.378;2023-04-09T08:50:55;94595.97;;;13.86;47.54
7335;BME280;3708;42.632;23.378;2023-04-09T08:53:22;94593.19;;;14.06;47.32
7335;BME280;3708;42.632;23.378;2023-04-09T08:55:50;94587.66;;;14.23;46.71
7335;BME280;3708;42.632;23.378;2023-04-09T08:58:17;94589.00;;;14.17;46.89
7335;BME280;3708;42.632;23.378;2023-04-09T09:00:43;94590.00;;;14.13;46.34
7335;BME280;3708;42.632;23.378;2023-04-09T09:03:11;94582.41;;;14.23;46.75
7335;BME280;3708;42.632;23.378;2023-04-09T09:05:39;94581.28;;;14.48;46.78
7335;BME280;3708;42.632;23.378;2023-04-09T09:08:07;94590.09;;;14.40;46.30
7335;BME280;3708;42.632;23.378;2023-04-09T09:10:38;94575.75;;;14.02;48.27
7335;BME280;3708;42.632;23.378;2023-04-09T09:13:18;94572.53;;;14.44;47.41
7335;BME280;3708;42.632;23.378;2023-04-09T09:15:45;94570.59;;;14.57;45.46
7335;BME280;3708;42.632;23.378;2023-04-09T09:18:15;94569.44;;;14.42;45.30
7335;BME280;3708;42.632;23.378;2023-04-09T09:20:42;94577.59;;;14.13;45.19
7335;BME280;3708;42.632;23.378;2023-04-09T09:23:09;94573.53;;;14.16;46.22
7335;BME280;3708;42.632;23.378;2023-04-09T09:25:37;94566.25;;;14.49;45.45
7335;BME280;3708;42.632;23.378;2023-04-09T09:28:07;94565.41;;;14.88;44.87
7335;BME280;3708;42.632;23.378;2023-04-09T09:30:37;94567.13;;;14.69;44.08
7335;BME280;3708;42.632;23.378;2023-04-09T09:33:05;94563.03;;;14.99;43.95
7335;BME280;3708;42.632;23.378;2023-04-09T09:35:48;94558.19;;;14.58;44.53
7335;BME280;3708;42.632;23.378;2023-04-09T09:38:16;94553.41;;;14.91;44.31
7335;BME280;3708;42.632;23.378;2023-04-09T09:40:43;94556.88;;;15.07;43.73
7335;BME280;3708;42.632;23.378;2023-04-09T09:43:11;94550.00;;;15.49;42.77
7335;BME280;3708;42.632;23.378;2023-04-09T09:45:40;94547.25;;;15.77;41.99
7335;BME280;3708;42.632;23.378;2023-04-09T09:48:09;94551.31;;;15.90;41.84
7335;BME280;3708;42.632;23.378;2023-04-09T09:50:37;94541.28;;;15.02;43.10
7335;BME280;3708;42.632;23.378;2023-04-09T09:53:07;94539.16;;;15.39;42.23
7335;BME280;3708;42.632;23.378;2023-04-09T09:55:37;94539.25;;;15.73;42.40
7335;BME280;3708;42.632;23.378;2023-04-09T09:58:07;94545.56;;;15.84;41.10
7335;BME280;3708;42.632;23.378;2023-04-09T10:00:36;94533.03;;;15.81;41.02
7335;BME280;3708;42.632;23.378;2023-04-09T10:03:10;94537.59;;;15.65;40.95
7335;BME280;3708;42.632;23.378;2023-04-09T10:05:39;94529.56;;;16.12;40.87
7335;BME280;3708;42.632;23.378;2023-04-09T10:08:06;94529.00;;;15.87;40.74
7335;BME280;3708;42.632;23.378;2023-04-09T10:10:34;94518.84;;;16.24;40.05
7335;BME280;3708;42.632;23.378;2023-04-09T10:13:01;94527.78;;;16.00;39.67
7335;BME280;3708;42.632;23.378;2023-04-09T10:15:31;94521.50;;;15.55;40.19
7335;BME280;3708;42.632;23.378;2023-04-09T10:17:58;94513.94;;;15.72;40.29
7335;BME280;3708;42.632;23.378;2023-04-09T10:20:33;94515.53;;;15.92;41.34
7335;BME280;3708;42.632;23.378;2023-04-09T10:23:04;94504.34;;;15.64;39.99
7335;BME280;3708;42.632;23.378;2023-04-09T10:25:35;94519.59;;;15.55;40.25
7335;BME280;3708;42.632;23.378;2023-04-09T10:28:14;94518.38;;;15.06;40.79
7335;BME280;3708;42.632;23.378;2023-04-09T10:30:41;94508.97;;;15.67;40.75
7335;BME280;3708;42.632;23.378;2023-04-09T10:33:09;94500.78;;;16.45;41.15
7335;BME280;3708;42.632;23.378;2023-04-09T10:35:38;94499.44;;;16.74;38.49
7335;BME280;3708;42.632;23.378;2023-04-09T10:38:06;94498.84;;;17.03;38.24
7335;BME280;3708;42.632;23.378;2023-04-09T10:40:34;94492.84;;;17.29;37.55
7335;BME280;3708;42.632;23.378;2023-04-09T10:43:01;94494.91;;;17.42;37.84
7335;BME280;3708;42.632;23.378;2023-04-09T10:45:38;94494.53;;;17.63;37.59
7335;BME280;3708;42.632;23.378;2023-04-09T10:48:10;94487.09;;;17.72;36.61
7335;BME280;3708;42.632;23.378;2023-04-09T10:50:41;94492.72;;;17.71;37.40
7335;BME280;3708;42.632;23.378;2023-04-09T10:53:20;94483.41;;;17.80;36.51
7335;BME280;3708;42.632;23.378;2023-04-09T10:55:48;94481.94;;;17.57;36.12
7335;BME280;3708;42.632;23.378;2023-04-09T10:58:16;94474.09;;;17.64;36.71
7335;BME280;3708;42.632;23.378;2023-04-09T11:00:43;94472.78;;;17.50;36.84
7335;BME280;3708;42.632;23.378;2023-04-09T11:03:31;94470.59;;;17.33;37.03
7335;BME280;3708;42.632;23.378;2023-04-09T11:06:05;94464.97;;;17.61;36.21
7335;BME280;3708;42.632;23.378;2023-04-09T11:08:36;94464.56;;;17.36;36.49
7335;BME280;3708;42.632;23.378;2023-04-09T11:11:03;94459.03;;;16.96;36.88
7335;BME280;3708;42.632;23.378;2023-04-09T11:13:31;94468.56;;;17.01;37.35
7335;BME280;3708;42.632;23.378;2023-04-09T11:15:59;94460.97;;;16.99;37.06
7335;BME280;3708;42.632;23.378;2023-04-09T11:18:29;94465.59;;;16.60;37.88
7335;BME280;3708;42.632;23.378;2023-04-09T11:20:59;94459.22;;;16.65;37.95
7335;BME280;3708;42.632;23.378;2023-04-09T11:23:29;94468.94;;;16.80;37.52
7335;BME280;3708;42.632;23.378;2023-04-09T11:25:57;94461.34;;;16.78;37.96
7335;BME280;3708;42.632;23.378;2023-04-09T11:28:24;94462.94;;;16.83;37.20
7335;BME280;3708;42.632;23.378;2023-04-09T11:30:51;94456.00;;;16.98;36.86
7335;BME280;3708;42.632;23.378;2023-04-09T11:33:18;94457.88;;;16.97;37.06
7335;BME280;3708;42.632;23.378;2023-04-09T11:35:45;94450.34;;;16.54;36.46
7335;BME280;3708;42.632;23.378;2023-04-09T11:38:12;94450.00;;;16.55;36.10
7335;BME280;3708;42.632;23.378;2023-04-09T11:40:41;94449.22;;;16.55;36.48
7335;BME280;3708;42.632;23.378;2023-04-09T11:43:12;94442.78;;;16.75;36.01
7335;BME280;3708;42.632;23.378;2023-04-09T11:45:41;94441.78;;;16.83;36.12
7335;BME280;3708;42.632;23.378;2023-04-09T11:48:08;94438.84;;;16.46;35.38
7335;BME280;3708;42.632;23.378;2023-04-09T11:50:35;94443.53;;;16.34;35.56
7335;BME280;3708;42.632;23.378;2023-04-09T11:53:14;94443.09;;;16.51;35.51
7335;BME280;3708;42.632;23.378;2023-04-09T11:55:46;94441.69;;;16.38;35.88
7335;BME280;3708;42.632;23.378;2023-04-09T11:58:13;94440.03;;;16.30;35.82
7335;BME280;3708;42.632;23.378;2023-04-09T12:00:40;94433.28;;;16.13;35.95
7335;BME280;3708;42.632;23.378;2023-04-09T12:03:09;94434.41;;;15.93;36.01
7335;BME280;3708;42.632;23.378;2023-04-09T12:05:35;94437.75;;;15.55;35.93
7335;BME280;3708;42.632;23.378;2023-04-09T12:08:03;94435.59;;;15.95;35.52
7335;BME280;3708;42.632;23.378;2023-04-09T12:10:32;94429.38;;;15.69;35.30
7335;BME280;3708;42.632;23.378;2023-04-09T12:13:05;94431.63;;;15.86;34.88
7335;BME280;3708;42.632;23.378;2023-04-09T12:15:33;94429.19;;;16.16;34.96
7335;BME280;3708;42.632;23.378;2023-04-09T12:18:00;94425.25;;;16.48;35.01
7335;BME280;3708;42.632;23.378;2023-04-09T12:20:32;94426.53;;;16.35;34.33
7335;BME280;3708;42.632;23.378;2023-04-09T12:23:01;94434.50;;;16.54;35.04
7335;BME280;3708;42.632;23.378;2023-04-09T12:25:29;94432.19;;;16.98;34.81
7335;BME280;3708;42.632;23.378;2023-04-09T12:27:56;94436.97;;;16.66;34.47
7335;BME280;3708;42.632;23.378;2023-04-09T12:30:25;94416.72;;;16.54;34.53
7335;BME280;3708;42.632;23.378;2023-04-09T12:32:52;94419.94;;;16.86;35.34
7335;BME280;3708;42.632;23.378;2023-04-09T12:35:20;94411.72;;;17.17;34.39
7335;BME280;3708;42.632;23.378;2023-04-09T12:37:47;94416.81;;;17.03;33.58
7335;BME280;3708;42.632;23.378;2023-04-09T12:40:14;94413.38;;;17.03;34.36
7335;BME280;3708;42.632;23.378;2023-04-09T12:42:41;94415.72;;;17.34;34.40
7335;BME280;3708;42.632;23.378;2023-04-09T12:45:10;94421.19;;;17.71;34.17
7335;BME280;3708;42.632;23.378;2023-04-09T12:47:39;94403.91;;;18.10;33.38
7335;BME280;3708;42.632;23.378;2023-04-09T12:50:07;94409.03;;;18.59;32.85
7335;BME280;3708;42.632;23.378;2023-04-09T12:52:34;94409.50;;;18.71;32.44
7335;BME280;3708;42.632;23.378;2023-04-09T12:55:01;94410.38;;;18.82;32.23
7335;BME280;3708;42.632;23.378;2023-04-09T12:57:28;94409.50;;;18.71;32.78
7335;BME280;3708;42.632;23.378;2023-04-09T12:59:55;94405.00;;;18.75;32.33
7335;BME280;3708;42.632;23.378;2023-04-09T13:02:22;94409.47;;;19.12;32.06
7335;BME280;3708;42.632;23.378;2023-04-09T13:04:50;94405.00;;;19.19;31.58
7335;BME280;3708;42.632;23.378;2023-04-09T13:07:18;94398.47;;;19.67;31.67
7335;BME280;3708;42.632;23.378;2023-04-09T13:09:45;94389.78;;;19.74;30.76
7335;BME280;3708;42.632;23.378;2023-04-09T13:12:12;94387.22;;;19.88;30.26
7335;BME280;3708;42.632;23.378;2023-04-09T13:14:40;94402.38;;;19.88;30.16